sensor_id;sensor_type;location;lat;lon;timestamp;pressure;altitude;pressure_sealevel;temperature;humidity
7052;BME280;3567;52.444;13.556;2023-06-22T00:00:51;101520.34;;;18.26;100.00
7052;BME280;3567;52.444;13.556;2023-06-22T00:03:18;101517.91;;;18.24;100.00
7052;BME280;3567;52.444;13.556;2023-06-22T00:05:45;101522.78;;;18.22;100.00
7052;BME280;3567;52.444;13.556;2023-06-22T00:08:10;101523.31;;;18.19;100.00
7052;BME280;3567;52.444;13.556;2023-06-22T00:10:36;101520.84;;;18.18;100.00
7052;BME280;3567;52.444;13.556;2023-06-22T00:13:01;101523.81;;;18.16;100.00
7052;BME280;3567;52.444;13.556;2023-06-22T00:15:26;101530.88;;;18.17;100.00
7052;BME280;3567;52.444;13.556;2023-06-22T00:17:52;101525.47;;;18.17;100.00
7052;BME280;3567;52.444;13.556;2023-06-22T00:20:17;101532.22;;;18.15;100.00
7052;BME280;3567;52.444;13.556;2023-06-22T00:22:44;101530.84;;;18.12;100.00
7052;BME280;3567;52.444;13.556;2023-06-22T00:25:09;101536.78;;;18.09;100.00
7052;BME280;3567;52.444;13.556;2023-06-22T00:27:35;101538.38;;;18.05;100.00
7052;BME280;3567;52.444;13.556;2023-06-22T00:30:01;101555.16;;;18.02;100.00
7052;BME280;3567;52.444;13.556;2023-06-22T00:32:26;101551.88;;;18.00;100.00
7052;BME280;3567;52.444;13.556;2023-06-22T00:34:51;101557.56;;;17.98;100.00
7052;BME280;3567;52.444;13.556;2023-06-22T00:37:17;101560.53;;;17.97;100.00
7052;BME280;3567;52.444;13.556;2023-06-22T00:39:43;101552.69;;;17.95;100.00
7052;BME280;3567;52.444;13.556;2023-06-22T00:42:08;101555.63;;;17.94;100.00
7052;BME280;3567;52.444;13.556;2023-06-22T00:44:35;101565.91;;;17.92;100.00
7052;BME280;3567;52.444;13.556;2023-06-22T00:47:00;101561.00;;;17.89;100.00
7052;BME280;3567;52.444;13.556;2023-06-22T00:49:26;101562.84;;;17.83;100.00
7052;BME280;3567;52.444;13.556;2023-06-22T00:51:52;101549.25;;;17.78;100.00
7052;BME280;3567;52.444;13.556;2023-06-22T00:54:17;101551.41;;;17.76;100.00
7052;BME280;3567;52.444;13.556;2023-06-22T00:56:58;101554.63;;;17.73;100.00
7052;BME280;3567;52.444;13.556;2023-06-22T00:59:24;101558.63;;;17.70;100.00
7052;BME280;3567;52.444;13.556;2023-06-22T01:01:51;101564.56;;;17.67;100.00
7052;BME280;3567;52.444;13.556;2023-06-22T01:04:16;101565.38;;;17.68;100.00
7052;BME280;3567;52.444;13.556;2023-06-22T01:07:10;101566.19;;;17.68;100.00
7052;BME280;3567;52.444;13.556;2023-06-22T01:09:51;101570.78;;;17.68;100.00
7052;BME280;3567;52.444;13.556;2023-06-22T01:12:20;101572.44;;;17.69;100.00
7052;BME280;3567;52.444;13.556;2023-06-22T01:15:00;101565.13;;;17.69;100.00
7052;BME280;3567;52.444;13.556;2023-06-22T01:17:27;101571.38;;;17.70;100.00
7052;BME280;3567;52.444;13.556;2023-06-22T01:19:54;101575.97;;;17.69;100.00
7052;BME280;3567;52.444;13.556;2023-06-22T01:22:24;101579.50;;;17.70;100.00
7052;BME280;3567;52.444;13.556;2023-06-22T01:25:30;101574.06;;;17.70;100.00
7052;BME280;3567;52.444;13.556;2023-06-22T01:30:28;101573.25;;;17.69;100.00
7052;BME280;3567;52.444;13.556;2023-06-22T01:32:57;101577.03;;;17.68;100.00
7052;BME280;3567;52.444;13.556;2023-06-22T01:35:24;101572.69;;;17.67;100.00
7052;BME280;3567;52.444;13.556;2023-06-22T01:37:50;101581.88;;;17.66;100.00
7052;BME280;3567;52.444;13.556;2023-06-22T01:40:16;101582.69;;;17.67;100.00
7052;BME280;3567;52.444;13.556;2023-06-22T01:42:43;101581.06;;;17.66;100.00
7052;BME280;3567;52.444;13.556;2023-06-22T01:45:09;101576.47;;;17.66;100.00
7052;BME280;3567;52.444;13.556;2023-06-22T01:47:35;101580.25;;;17.65;100.00
7052;BME280;3567;52.444;13.556;2023-06-22T01:50:01;101585.41;;;17.67;100.00
7052;BME280;3567;52.444;13.556;2023-06-22T01:52:26;101596.00;;;17.68;100.00
7052;BME280;3567;52.444;13.556;2023-06-22T01:54:51;101598.47;;;17.70;100.00
7052;BME280;3567;52.444;13.556;2023-06-22T01:57:17;101608.00;;;17.72;100.00
7052;BME280;3567;52.444;13.556;2023-06-22T02:00:02;101594.22;;;17.74;100.00
7052;BME280;3567;52.444;13.556;2023-06-22T02:02:33;101591.56;;;17.79;100.00
7052;BME280;3567;52.444;13.556;2023-06-22T02:05:05;101590.25;;;17.87;100.00
7052;BME280;3567;52.444;13.556;2023-06-22T02:07:34;101591.44;;;17.96;100.00
7052;BME280;3567;52.444;13.556;2023-06-22T02:10:06;101592.59;;;18.05;100.00
7052;BME280;3567;52.444;13.556;2023-06-22T02:12:33;101591.03;;;18.14;100.00
7052;BME280;3567;52.444;13.556;2023-06-22T02:15:00;101592.75;;;18.25;100.00
7052;BME280;3567;52.444;13.556;2023-06-22T02:17:26;101587.13;;;18.32;100.00
7052;BME280;3567;52.444;13.556;2023-06-22T02:19:51;101582.81;;;18.36;100.00
7052;BME280;3567;52.444;13.556;2023-06-22T02:22:17;101590.72;;;18.38;100.00
7052;BME280;3567;52.444;13.556;2023-06-22T02:24:43;101591.28;;;18.45;100.00
7052;BME280;3567;52.444;13.556;2023-06-22T02:27:08;101601.63;;;18.48;100.00
7052;BME280;3567;52.444;13.556;2023-06-22T02:29:33;101603.00;;;18.50;100.00
7052;BME280;3567;52.444;13.556;2023-06-22T02:31:59;101601.38;;;18.49;100.00
7052;BME280;3567;52.444;13.556;2023-06-22T02:34:24;101602.69;;;18.47;100.00
7052;BME280;3567;52.444;13.556;2023-06-22T02:36:50;101602.16;;;18.45;100.00
7052;BME280;3567;52.444;13.556;2023-06-22T02:39:23;101609.47;;;18.44;100.00
7052;BME280;3567;52.444;13.556;2023-06-22T02:41:50;101602.16;;;18.45;100.00
7052;BME280;3567;52.444;13.556;2023-06-22T02:44:15;101606.75;;;18.44;100.00
7052;BME280;3567;52.444;13.556;2023-06-22T02:46:41;101605.94;;;18.44;100.00
7052;BME280;3567;52.444;13.556;2023-06-22T02:49:06;101601.34;;;18.44;100.00
7052;BME280;3567;52.444;13.556;2023-06-22T02:51:33;101607.03;;;18.48;100.00
7052;BME280;3567;52.444;13.556;2023-06-22T02:54:02;101607.06;;;18.53;100.00
7052;BME280;3567;52.444;13.556;2023-06-22T02:56:28;101604.66;;;18.56;100.00
7052;BME280;3567;52.444;13.556;2023-06-22T02:58:55;101601.19;;;18.61;100.00
7052;BME280;3567;52.444;13.556;2023-06-22T03:01:26;101611.81;;;18.68;100.00
7052;BME280;3567;52.444;13.556;2023-06-22T03:03:53;101613.75;;;18.72;100.00
7052;BME280;3567;52.444;13.556;2023-06-22T03:06:18;101608.63;;;18.76;100.00
7052;BME280;3567;52.444;13.556;2023-06-22T03:08:48;101611.09;;;18.77;100.00
7052;BME280;3567;52.444;13.556;2023-06-22T03:11:13;101606.19;;;18.79;100.00
7052;BME280;3567;52.444;13.556;2023-06-22T03:13:38;101609.50;;;18.81;100.00
7052;BME280;3567;52.444;13.556;2023-06-22T03:16:04;101606.78;;;18.81;100.00
7052;BME280;3567;52.444;13.556;2023-06-22T03:18:29;101606.78;;;18.81;100.00
7052;BME280;3567;52.444;13.556;2023-06-22T03:20:54;101613.00;;;18.82;100.00
7052;BME280;3567;52.444;13.556;2023-06-22T03:23:20;101619.25;;;18.82;100.00
7052;BME280;3567;52.444;13.556;2023-06-22T03:25:45;101606.78;;;18.81;100.00
7052;BME280;3567;52.444;13.556;2023-06-22T03:28:10;101601.84;;;18.78;100.00
7052;BME280;3567;52.444;13.556;2023-06-22T03:30:36;101607.00;;;18.80;100.00
7052;BME280;3567;52.444;13.556;2023-06-22T03:33:01;101604.84;;;18.77;100.00
7052;BME280;3567;52.444;13.556;2023-06-22T03:35:27;101597.78;;;18.76;100.00
7052;BME280;3567;52.444;13.556;2023-06-22T03:37:52;101595.31;;;18.74;100.00
7052;BME280;3567;52.444;13.556;2023-06-22T03:40:17;101606.97;;;18.75;100.00
7052;BME280;3567;52.444;13.556;2023-06-22T03:42:43;101600.75;;;18.74;100.00
7052;BME280;3567;52.444;13.556;2023-06-22T03:45:09;101607.81;;;18.75;100.00
7052;BME280;3567;52.444;13.556;2023-06-22T03:47:34;101609.19;;;18.78;100.00
7052;BME280;3567;52.444;13.556;2023-06-22T03:50:00;101612.19;;;18.81;100.00
7052;BME280;3567;52.444;13.556;2023-06-22T03:52:25;101607.03;;;18.85;100.00
7052;BME280;3567;52.444;13.556;2023-06-22T03:54:50;101610.06;;;18.89;100.00
7052;BME280;3567;52.444;13.556;2023-06-22T03:57:16;101611.44;;;18.91;100.00
7052;BME280;3567;52.444;13.556;2023-06-22T03:59:41;101608.75;;;18.96;100.00
7052;BME280;3567;52.444;13.556;2023-06-22T04:02:06;101611.75;;;19.00;100.00
7052;BME280;3567;52.444;13.556;2023-06-22T04:04:32;101608.25;;;19.04;100.00
7052;BME280;3567;52.444;13.556;2023-06-22T04:06:58;101617.50;;;19.08;100.00
7052;BME280;3567;52.444;13.556;2023-06-22T04:09:25;101615.06;;;19.12;100.00
7052;BME280;3567;52.444;13.556;2023-06-22T04:11:52;101613.47;;;19.16;100.00
7052;BME280;3567;52.444;13.556;2023-06-22T04:14:17;101618.38;;;19.19;100.00
7052;BME280;3567;52.444;13.556;2023-06-22T04:16:43;101611.06;;;19.25;100.00
7052;BME280;3567;52.444;13.556;2023-06-22T04:19:08;101609.19;;;19.30;100.00
7052;BME280;3567;52.444;13.556;2023-06-22T04:21:39;101614.63;;;19.35;100.00
7052;BME280;3567;52.444;13.556;2023-06-22T04:24:06;101621.72;;;19.42;100.00
7052;BME280;3567;52.444;13.556;2023-06-22T04:26:32;101621.22;;;19.50;100.00
7052;BME280;3567;52.444;13.556;2023-06-22T04:29:04;101621.50;;;19.53;100.00
7052;BME280;3567;52.444;13.556;2023-06-22T04:31:32;101624.50;;;19.57;100.00
7052;BME280;3567;52.444;13.556;2023-06-22T04:34:04;101637.84;;;19.63;100.00
7052;BME280;3567;52.444;13.556;2023-06-22T04:36:39;101622.38;;;19.69;100.00
7052;BME280;3567;52.444;13.556;2023-06-22T04:39:10;101633.53;;;19.73;100.00
7052;BME280;3567;52.444;13.556;2023-06-22T04:41:37;101631.09;;;19.81;100.00
7052;BME280;3567;52.444;13.556;2023-06-22T04:44:15;101633.31;;;19.89;100.00
7052;BME280;3567;52.444;13.556;2023-06-22T04:46:51;101638.75;;;20.00;100.00
7052;BME280;3567;52.444;13.556;2023-06-22T04:49:26;101634.97;;;20.11;100.00
7052;BME280;3567;52.444;13.556;2023-06-22T04:52:00;101638.78;;;20.20;100.00
7052;BME280;3567;52.444;13.556;2023-06-22T04:54:29;101641.53;;;20.25;100.00
7052;BME280;3567;52.444;13.556;2023-06-22T04:56:54;101644.25;;;20.30;100.00
7052;BME280;3567;52.444;13.556;2023-06-22T04:59:24;101639.63;;;20.31;100.00
7052;BME280;3567;52.444;13.556;2023-06-22T05:01:59;101638.25;;;20.33;100.00
7052;BME280;3567;52.444;13.556;2023-06-22T05:04:25;101640.97;;;20.33;99.70
7052;BME280;3567;52.444;13.556;2023-06-22T05:06:53;101639.34;;;20.37;99.47
7052;BME280;3567;52.444;13.556;2023-06-22T05:09:19;101647.22;;;20.44;98.70
7052;BME280;3567;52.444;13.556;2023-06-22T05:11:47;101639.91;;;20.55;98.73
7052;BME280;3567;52.444;13.556;2023-06-22T05:14:19;101646.72;;;20.67;99.01
7052;BME280;3567;52.444;13.556;2023-06-22T05:16:46;101640.69;;;20.76;98.13
7052;BME280;3567;52.444;13.556;2023-06-22T05:19:12;101636.34;;;20.80;97.64
7052;BME280;3567;52.444;13.556;2023-06-22T05:21:46;101637.69;;;20.82;96.73
7052;BME280;3567;52.444;13.556;2023-06-22T05:24:11;101643.13;;;20.87;96.16
7052;BME280;3567;52.444;13.556;2023-06-22T05:26:37;101653.47;;;20.96;95.82
7052;BME280;3567;52.444;13.556;2023-06-22T05:29:03;101642.56;;;21.01;94.92
7052;BME280;3567;52.444;13.556;2023-06-22T05:31:36;101644.97;;;21.12;94.89
7052;BME280;3567;52.444;13.556;2023-06-22T05:34:22;101652.56;;;21.26;94.39
7052;BME280;3567;52.444;13.556;2023-06-22T05:36:47;101648.75;;;21.37;93.65
7052;BME280;3567;52.444;13.556;2023-06-22T05:39:16;101659.88;;;21.45;92.61
7052;BME280;3567;52.444;13.556;2023-06-22T05:41:50;101662.84;;;21.54;91.67
7052;BME280;3567;52.444;13.556;2023-06-22T05:49:24;101657.03;;;21.71;89.34
7052;BME280;3567;52.444;13.556;2023-06-22T05:51:54;101670.31;;;21.83;88.95
7052;BME280;3567;52.444;13.556;2023-06-22T05:54:20;101666.13;;;22.01;88.67
7052;BME280;3567;52.444;13.556;2023-06-22T05:56:45;101676.94;;;22.21;88.44
7052;BME280;3567;52.444;13.556;2023-06-22T05:59:11;101678.50;;;22.32;86.73
7052;BME280;3567;52.444;13.556;2023-06-22T06:01:37;101683.94;;;22.37;86.56
7052;BME280;3567;52.444;13.556;2023-06-22T06:04:03;101678.13;;;22.44;86.15
7052;BME280;3567;52.444;13.556;2023-06-22T06:06:35;101684.41;;;22.44;86.13
7052;BME280;3567;52.444;13.556;2023-06-22T06:09:03;101683.59;;;22.44;85.94
7052;BME280;3567;52.444;13.556;2023-06-22T06:11:28;101678.41;;;22.42;86.02
7052;BME280;3567;52.444;13.556;2023-06-22T06:13:54;101679.00;;;22.39;85.39
7052;BME280;3567;52.444;13.556;2023-06-22T06:16:19;101671.66;;;22.35;85.02
7052;BME280;3567;52.444;13.556;2023-06-22T06:18:45;101663.75;;;22.33;84.95
7052;BME280;3567;52.444;13.556;2023-06-22T06:21:10;101660.19;;;22.38;85.40
7052;BME280;3567;52.444;13.556;2023-06-22T06:23:35;101658.44;;;22.47;85.50
7052;BME280;3567;52.444;13.556;2023-06-22T06:26:01;101660.81;;;22.59;85.22
7052;BME280;3567;52.444;13.556;2023-06-22T06:28:26;101659.66;;;22.65;84.44
7052;BME280;3567;52.444;13.556;2023-06-22T06:30:52;101657.19;;;22.63;83.00
7052;BME280;3567;52.444;13.556;2023-06-22T06:33:17;101653.59;;;22.68;82.74
7052;BME280;3567;52.444;13.556;2023-06-22T06:35:42;101665.56;;;22.77;83.00
7052;BME280;3567;52.444;13.556;2023-06-22T06:38:08;101664.38;;;22.88;82.05
7052;BME280;3567;52.444;13.556;2023-06-22T06:40:33;101676.31;;;22.97;81.52
7052;BME280;3567;52.444;13.556;2023-06-22T06:42:58;101670.19;;;23.06;81.41
7052;BME280;3567;52.444;13.556;2023-06-22T06:45:24;101664.41;;;23.12;80.40
7052;BME280;3567;52.444;13.556;2023-06-22T06:47:52;101663.25;;;23.18;80.21
7052;BME280;3567;52.444;13.556;2023-06-22T06:50:18;101660.22;;;23.20;79.79
7052;BME280;3567;52.444;13.556;2023-06-22T06:52:43;101668.34;;;23.25;79.43
7052;BME280;3567;52.444;13.556;2023-06-22T06:55:09;101653.13;;;23.19;78.81
7052;BME280;3567;52.444;13.556;2023-06-22T06:57:37;101651.78;;;23.16;78.25
7052;BME280;3567;52.444;13.556;2023-06-22T07:00:07;101654.75;;;23.20;78.32
7052;BME280;3567;52.444;13.556;2023-06-22T07:02:39;101649.72;;;23.27;77.69
7052;BME280;3567;52.444;13.556;2023-06-22T07:05:08;101649.84;;;23.41;77.86
7052;BME280;3567;52.444;13.556;2023-06-22T07:07:34;101656.81;;;23.52;77.23
7052;BME280;3567;52.444;13.556;2023-06-22T07:10:00;101642.47;;;23.65;76.85
7052;BME280;3567;52.444;13.556;2023-06-22T07:12:25;101644.81;;;23.72;75.49
7052;BME280;3567;52.444;13.556;2023-06-22T07:14:52;101637.13;;;23.74;74.66
7052;BME280;3567;52.444;13.556;2023-06-22T07:17:17;101629.97;;;23.78;74.52
7052;BME280;3567;52.444;13.556;2023-06-22T07:19:43;101627.16;;;23.83;74.91
7052;BME280;3567;52.444;13.556;2023-06-22T07:22:08;101620.56;;;23.84;74.12
7052;BME280;3567;52.444;13.556;2023-06-22T07:24:33;101618.63;;;23.85;74.31
7052;BME280;3567;52.444;13.556;2023-06-22T07:26:59;101618.88;;;23.88;72.48
7052;BME280;3567;52.444;13.556;2023-06-22T07:29:25;101618.41;;;24.00;72.70
7052;BME280;3567;52.444;13.556;2023-06-22T07:31:52;101616.81;;;24.13;72.75
7052;BME280;3567;52.444;13.556;2023-06-22T07:34:17;101615.03;;;24.22;71.92
7052;BME280;3567;52.444;13.556;2023-06-22T07:36:44;101610.97;;;24.38;72.75
7052;BME280;3567;52.444;13.556;2023-06-22T07:39:09;101606.09;;;24.35;69.14
7052;BME280;3567;52.444;13.556;2023-06-22T07:41:34;101609.84;;;24.39;68.03
7052;BME280;3567;52.444;13.556;2023-06-22T07:44:01;101601.34;;;24.54;67.05
7052;BME280;3567;52.444;13.556;2023-06-22T07:46:27;101607.28;;;24.62;66.50
7052;BME280;3567;52.444;13.556;2023-06-22T07:48:55;101611.31;;;24.64;66.30
7052;BME280;3567;52.444;13.556;2023-06-22T07:51:20;101596.13;;;24.72;63.00
7052;BME280;3567;52.444;13.556;2023-06-22T07:53:46;101605.66;;;24.74;63.88
7052;BME280;3567;52.444;13.556;2023-06-22T07:56:11;101603.03;;;24.83;63.82
7052;BME280;3567;52.444;13.556;2023-06-22T07:58:37;101599.78;;;24.95;63.91
7052;BME280;3567;52.444;13.556;2023-06-22T08:01:02;101603.56;;;24.99;62.96
7052;BME280;3567;52.444;13.556;2023-06-22T08:03:28;101597.13;;;25.03;62.68
7052;BME280;3567;52.444;13.556;2023-06-22T08:05:53;101603.66;;;25.07;63.76
7052;BME280;3567;52.444;13.556;2023-06-22T08:08:19;101598.19;;;25.07;63.72
7052;BME280;3567;52.444;13.556;2023-06-22T08:10:44;101608.44;;;25.16;63.60
7052;BME280;3567;52.444;13.556;2023-06-22T08:13:10;101612.69;;;25.22;63.40
7052;BME280;3567;52.444;13.556;2023-06-22T08:15:35;101609.56;;;25.15;62.81
7052;BME280;3567;52.444;13.556;2023-06-22T08:18:00;101605.38;;;25.17;64.42
7052;BME280;3567;52.444;13.556;2023-06-22T08:20:26;101611.78;;;25.26;64.41
7052;BME280;3567;52.444;13.556;2023-06-22T08:22:53;101610.44;;;25.38;64.78
7052;BME280;3567;52.444;13.556;2023-06-22T08:25:19;101605.44;;;25.53;62.70
7052;BME280;3567;52.444;13.556;2023-06-22T08:27:45;101594.84;;;25.60;60.60
7052;BME280;3567;52.444;13.556;2023-06-22T08:30:12;101601.13;;;25.61;60.07
7052;BME280;3567;52.444;13.556;2023-06-22T08:32:37;101597.91;;;25.59;59.08
7052;BME280;3567;52.444;13.556;2023-06-22T08:35:03;101600.75;;;25.68;59.00
7052;BME280;3567;52.444;13.556;2023-06-22T08:37:28;101599.53;;;25.60;59.81
7052;BME280;3567;52.444;13.556;2023-06-22T08:40:02;101591.59;;;25.58;59.12
7052;BME280;3567;52.444;13.556;2023-06-22T08:42:33;101594.97;;;25.55;59.09
7052;BME280;3567;52.444;13.556;2023-06-22T08:44:58;101586.72;;;25.55;58.64
7052;BME280;3567;52.444;13.556;2023-06-22T08:47:23;101599.53;;;25.60;60.08
7052;BME280;3567;52.444;13.556;2023-06-22T08:49:49;101601.53;;;25.68;60.09
7052;BME280;3567;52.444;13.556;2023-06-22T08:52:14;101597.31;;;25.62;59.20
7052;BME280;3567;52.444;13.556;2023-06-22T08:54:40;101601.44;;;25.73;59.07
7052;BME280;3567;52.444;13.556;2023-06-22T08:57:06;101591.88;;;25.84;57.49
7052;BME280;3567;52.444;13.556;2023-06-22T08:59:31;101593.28;;;25.82;57.00
7052;BME280;3567;52.444;13.556;2023-06-22T09:01:56;101596.84;;;25.82;57.91
7052;BME280;3567;52.444;13.556;2023-06-22T09:04:22;101603.53;;;25.90;58.54
7052;BME280;3567;52.444;13.556;2023-06-22T09:06:50;101595.78;;;25.92;58.12
7052;BME280;3567;52.444;13.556;2023-06-22T09:09:17;101595.97;;;25.96;57.43
7052;BME280;3567;52.444;13.556;2023-06-22T09:11:43;101596.03;;;26.04;57.48
7052;BME280;3567;52.444;13.556;2023-06-22T09:14:09;101585.44;;;26.11;57.03
7052;BME280;3567;52.444;13.556;2023-06-22T09:16:35;101582.31;;;26.27;56.48
7052;BME280;3567;52.444;13.556;2023-06-22T09:19:00;101572.69;;;26.38;55.77
7052;BME280;3567;52.444;13.556;2023-06-22T09:21:27;101572.44;;;26.48;54.47
7052;BME280;3567;52.444;13.556;2023-06-22T09:23:53;101570.03;;;26.55;53.00
7052;BME280;3567;52.444;13.556;2023-06-22T09:26:18;101574.13;;;26.67;53.65
7052;BME280;3567;52.444;13.556;2023-06-22T09:28:44;101581.75;;;26.70;54.41
7052;BME280;3567;52.444;13.556;2023-06-22T09:31:09;101572.31;;;26.53;53.78
7052;BME280;3567;52.444;13.556;2023-06-22T09:33:35;101572.03;;;26.63;53.32
7052;BME280;3567;52.444;13.556;2023-06-22T09:36:01;101572.59;;;26.92;54.70
7052;BME280;3567;52.444;13.556;2023-06-22T09:38:26;101564.47;;;27.18;51.39
7052;BME280;3567;52.444;13.556;2023-06-22T09:40:52;101557.34;;;27.25;48.75
7052;BME280;3567;52.444;13.556;2023-06-22T09:43:17;101558.00;;;27.31;48.64
7052;BME280;3567;52.444;13.556;2023-06-22T09:45:42;101545.69;;;27.37;47.80
7052;BME280;3567;52.444;13.556;2023-06-22T09:48:08;101549.25;;;27.46;46.74
7052;BME280;3567;52.444;13.556;2023-06-22T09:50:35;101549.44;;;27.50;48.75
7052;BME280;3567;52.444;13.556;2023-06-22T09:53:00;101550.75;;;27.44;48.96
7052;BME280;3567;52.444;13.556;2023-06-22T09:55:25;101550.56;;;27.40;47.77
7052;BME280;3567;52.444;13.556;2023-06-22T09:57:51;101558.00;;;27.48;48.88
7052;BME280;3567;52.444;13.556;2023-06-22T10:00:16;101552.34;;;27.62;47.17
7052;BME280;3567;52.444;13.556;2023-06-22T10:02:42;101549.75;;;27.65;47.11
7052;BME280;3567;52.444;13.556;2023-06-22T10:05:08;101551.84;;;27.68;46.60
7052;BME280;3567;52.444;13.556;2023-06-22T10:07:33;101540.72;;;27.74;45.77
7052;BME280;3567;52.444;13.556;2023-06-22T10:09:59;101553.63;;;27.90;46.48
7052;BME280;3567;52.444;13.556;2023-06-22T10:12:26;101540.03;;;27.94;44.51
7052;BME280;3567;52.444;13.556;2023-06-22T10:14:52;101537.78;;;27.79;44.34
7052;BME280;3567;52.444;13.556;2023-06-22T10:17:17;101542.44;;;27.69;45.83
7052;BME280;3567;52.444;13.556;2023-06-22T10:19:43;101542.97;;;27.80;45.11
7052;BME280;3567;52.444;13.556;2023-06-22T10:22:08;101539.06;;;27.90;44.85
7052;BME280;3567;52.444;13.556;2023-06-22T10:24:33;101537.44;;;27.89;44.80
7052;BME280;3567;52.444;13.556;2023-06-22T10:26:59;101540.06;;;27.77;44.99
7052;BME280;3567;52.444;13.556;2023-06-22T10:29:24;101545.75;;;27.72;45.10
7052;BME280;3567;52.444;13.556;2023-06-22T10:31:50;101538.75;;;27.74;45.09
7052;BME280;3567;52.444;13.556;2023-06-22T10:34:15;101528.72;;;27.78;45.76
7052;BME280;3567;52.444;13.556;2023-06-22T10:36:40;101533.25;;;27.83;46.02
7052;BME280;3567;52.444;13.556;2023-06-22T10:39:06;101530.34;;;27.88;45.72
7052;BME280;3567;52.444;13.556;2023-06-22T10:41:31;101527.25;;;27.98;45.31
7052;BME280;3567;52.444;13.556;2023-06-22T10:43:57;101515.88;;;28.08;44.08
7052;BME280;3567;52.444;13.556;2023-06-22T10:46:24;101521.50;;;28.29;44.94
7052;BME280;3567;52.444;13.556;2023-06-22T10:48:50;101517.06;;;28.45;44.25
7052;BME280;3567;52.444;13.556;2023-06-22T10:51:15;101521.81;;;28.36;44.42
7052;BME280;3567;52.444;13.556;2023-06-22T10:53:41;101523.56;;;28.41;44.40
7052;BME280;3567;52.444;13.556;2023-06-22T10:56:06;101522.53;;;28.54;45.79
7052;BME280;3567;52.444;13.556;2023-06-22T10:58:31;101516.00;;;28.97;44.65
7052;BME280;3567;52.444;13.556;2023-06-22T11:00:57;101513.88;;;29.65;43.65
7052;BME280;3567;52.444;13.556;2023-06-22T11:03:24;101500.25;;;30.26;42.00
7052;BME280;3567;52.444;13.556;2023-06-22T11:05:49;101491.97;;;30.75;42.54
7052;BME280;3567;52.444;13.556;2023-06-22T11:08:15;101485.94;;;30.98;41.17
7052;BME280;3567;52.444;13.556;2023-06-22T11:10:40;101479.41;;;31.30;39.16
7052;BME280;3567;52.444;13.556;2023-06-22T11:13:05;101476.59;;;31.71;39.19
7052;BME280;3567;52.444;13.556;2023-06-22T11:15:34;101455.56;;;31.82;36.70
7052;BME280;3567;52.444;13.556;2023-06-22T11:18:00;101469.34;;;31.66;38.02
7052;BME280;3567;52.444;13.556;2023-06-22T11:20:25;101467.34;;;32.11;37.76
7052;BME280;3567;52.444;13.556;2023-06-22T11:22:50;101459.03;;;32.58;36.96
7052;BME280;3567;52.444;13.556;2023-06-22T11:25:16;101452.78;;;32.61;36.75
7052;BME280;3567;52.444;13.556;2023-06-22T11:27:41;101436.41;;;32.75;35.87
7052;BME280;3567;52.444;13.556;2023-06-22T11:30:07;101450.22;;;33.07;36.09
7052;BME280;3567;52.444;13.556;2023-06-22T11:32:34;101442.19;;;33.21;35.79
7052;BME280;3567;52.444;13.556;2023-06-22T11:34:59;101445.97;;;33.13;35.96
7052;BME280;3567;52.444;13.556;2023-06-22T11:37:24;101437.78;;;32.81;35.99
7052;BME280;3567;52.444;13.556;2023-06-22T11:39:49;101441.97;;;32.40;36.42
7052;BME280;3567;52.444;13.556;2023-06-22T11:42:15;101429.53;;;32.50;36.62
7052;BME280;3567;52.444;13.556;2023-06-22T11:44:41;101434.16;;;32.81;36.37
7052;BME280;3567;52.444;13.556;2023-06-22T11:47:07;101424.00;;;32.69;35.63
7052;BME280;3567;52.444;13.556;2023-06-22T11:49:32;101422.25;;;32.61;34.59
7052;BME280;3567;52.444;13.556;2023-06-22T11:51:58;101428.78;;;32.53;34.50
7052;BME280;3567;52.444;13.556;2023-06-22T11:54:23;101435.88;;;32.50;34.82
7052;BME280;3567;52.444;13.556;2023-06-22T11:56:48;101436.91;;;32.97;34.75
7052;BME280;3567;52.444;13.556;2023-06-22T11:59:14;101439.69;;;33.16;35.68
7052;BME280;3567;52.444;13.556;2023-06-22T12:01:39;101447.00;;;33.63;35.44
7052;BME280;3567;52.444;13.556;2023-06-22T12:04:05;101450.56;;;33.86;34.69
7052;BME280;3567;52.444;13.556;2023-06-22T12:06:35;101442.09;;;33.99;34.21
7052;BME280;3567;52.444;13.556;2023-06-22T12:09:03;101437.38;;;34.26;33.76
7052;BME280;3567;52.444;13.556;2023-06-22T12:11:29;101434.28;;;34.31;33.72
7052;BME280;3567;52.444;13.556;2023-06-22T12:13:54;101429.59;;;34.38;33.21
7052;BME280;3567;52.444;13.556;2023-06-22T12:16:20;101419.47;;;34.50;32.82
7052;BME280;3567;52.444;13.556;2023-06-22T12:18:47;101416.84;;;34.60;32.01
7052;BME280;3567;52.444;13.556;2023-06-22T12:21:12;101406.50;;;34.61;31.93
7052;BME280;3567;52.444;13.556;2023-06-22T12:23:37;101396.16;;;34.58;32.26
7052;BME280;3567;52.444;13.556;2023-06-22T12:26:03;101398.75;;;34.74;32.61
7052;BME280;3567;52.444;13.556;2023-06-22T12:28:28;101397.06;;;34.99;32.22
7052;BME280;3567;52.444;13.556;2023-06-22T12:30:53;101398.25;;;34.98;32.18
7052;BME280;3567;52.444;13.556;2023-06-22T12:33:19;101384.56;;;34.86;32.53
7052;BME280;3567;52.444;13.556;2023-06-22T12:35:45;101387.03;;;34.61;32.53
7052;BME280;3567;52.444;13.556;2023-06-22T12:38:11;101388.06;;;34.79;32.58
7052;BME280;3567;52.444;13.556;2023-06-22T12:40:36;101383.06;;;34.35;31.67
7052;BME280;3567;52.444;13.556;2023-06-22T12:43:01;101384.75;;;33.91;34.68
7052;BME280;3567;52.444;13.556;2023-06-22T12:45:27;101397.81;;;33.44;34.03
7052;BME280;3567;52.444;13.556;2023-06-22T12:47:54;101388.66;;;33.63;35.02
7052;BME280;3567;52.444;13.556;2023-06-22T12:50:19;101392.31;;;33.67;33.78
7052;BME280;3567;52.444;13.556;2023-06-22T12:52:45;101380.22;;;33.36;34.37
7052;BME280;3567;52.444;13.556;2023-06-22T12:55:10;101369.00;;;33.10;34.32
7052;BME280;3567;52.444;13.556;2023-06-22T12:57:36;101363.22;;;32.61;34.87
7052;BME280;3567;52.444;13.556;2023-06-22T13:00:01;101367.75;;;32.88;35.13